Eielson Air Force Base, AK (99702)

4:17 PM AKDT on August 04, 2015 (GMT -0800)
Eielson farm road | | Change Station
CLOSE
Current Station
Personal Weather Station
Location: North Pole, AK
Elevation: 550 ft
Nearby Weather Stations

Elev 550 ft 64.67 °N, 147.18 °W | Updated 3 minutes ago

Clear
Clear
80.1 °F
Feels Like 80 °F
N
6.3
Wind Variable Wind from West

Today
High -- | Low -- °F
--% Chance of Precip.
Yesterday
High -- | Low -- °F
Precip. -- in
4:59 AM 10:46 PM
Waning Gibbous, 73% visible
Pressure 29.88 in
Visibility 10.0 miles
Clouds Clear
Heat Index 80 °F
Dew Point 57 °F
Humidity 45%
Rainfall 0.00 in
Snow Depth Not available.
UV 5 out of 12
Pollen Not available.
Air Quality Not available.
Flu Activity Not available.
METAR PAEI 042358Z AUTO VRB05KT 10SM CLR 26/14 A2987 RMK AO2 SLP118 T02620138 10262 20184 $

More Conditions Fewer Conditions

Pressure 29.88 in
Visibility 10.0 miles
Clouds Clear
Heat Index 80 °F
Dew Point 57 °F
Humidity 45%
Rainfall 0.00 in
Snow Depth Not available.
UV 5 out of 12
Pollen Not available.
Air Quality Not available.
Flu Activity Not available.
METAR PAEI 042358Z AUTO VRB05KT 10SM CLR 26/14 A2987 RMK AO2 SLP118 T02620138 10262 20184 $

More Conditions Fewer Conditions

10-Day Weather Forecast

×

Almanac

Astronomy

Aug. 04, 2015 Rise Set
Actual Time
Civil Twilight
Nautical Twilight
Astronomical Twilight
Moon
Length of Visible Light
Length of Day
Tomorrow will be .
, % of the Moon is Illuminated

Today's Extremes

State Highs State Lows

Community

WunderPhotos

Upload Photos

1,844,034 photos uploaded!

WunderBlogs® & News

Nearby

Air Quality

  Air Quality AQ Index Pollutant
Not available.

Snow Depth

Station Depth Elevation

Earthquake Activity

City Distance Mag. Time & Date
Minimum magnitude displayed is 2.5.

Coastal Water Temperatures

Place Temperature

Stations

Nearby Weather Stations

Station Location Temp. Windchill Dew Point Humidity Wind Precip. Elev Updated Type